Time;durP1;ratioP1;P1;durP2;ratioP2;P2;SDS_P1;SDS_P2;PMS_P1;PMS_P2;Temp;Humidity;BMP_temperature;BMP_pressure;BME280_temperature;BME280_humidity;BME280_pressure;Samples;Min_cycle;Max_cycle;Signal;HPM_P1;HPM_P2
2021/04/05 00:01:15;;;;;;;10.80;3.53;;;6.60;75.30;;;;;;5044962;28;20060;-87
2021/04/05 00:03:40;;;;;;;8.73;3.80;;;6.60;75.40;;;;;;5035614;28;20488;-88
2021/04/05 00:06:06;;;;;;;8.18;3.25;;;6.60;75.40;;;;;;5036502;28;20029;-87
2021/04/05 00:08:32;;;;;;;12.32;3.83;;;6.50;75.60;;;;;;5035332;28;20029;-87
2021/04/05 00:10:57;;;;;;;11.05;3.38;;;6.50;75.80;;;;;;5036673;28;20025;-86
2021/04/05 00:13:29;;;;;;;8.77;4.82;;;6.40;76.20;;;;;;5034337;28;20040;-86
2021/04/05 00:15:55;;;;;;;8.27;2.78;;;6.50;76.90;;;;;;5035388;28;20116;-87
2021/04/05 00:18:23;;;;;;;9.13;3.00;;;6.50;76.10;;;;;;5035141;28;20060;-87
2021/04/05 00:21:10;;;;;;;10.07;3.75;;;6.50;76.90;;;;;;5035171;28;20029;-87
2021/04/05 00:23:36;;;;;;;8.10;2.85;;;6.50;76.90;;;;;;5034321;28;20083;-87
2021/04/05 00:26:03;;;;;;;8.38;3.20;;;6.60;76.60;;;;;;5034893;28;20022;-87
2021/04/05 00:28:29;;;;;;;9.38;3.15;;;6.60;76.80;;;;;;5033760;28;20029;-88
2021/04/05 00:30:55;;;;;;;9.23;3.10;;;6.60;76.90;;;;;;5034735;28;20071;-87
2021/04/05 00:33:22;;;;;;;6.82;3.22;;;6.60;77.50;;;;;;5034988;28;20109;-87
2021/04/05 00:35:48;;;;;;;9.20;3.60;;;6.50;77.90;;;;;;5036048;28;20028;-86
2021/04/05 00:38:14;;;;;;;10.27;3.58;;;6.50;77.50;;;;;;5027473;28;20049;-87
2021/04/05 00:40:52;;;;;;;6.63;3.20;;;6.50;77.50;;;;;;5026974;28;20022;-87
2021/04/05 00:43:18;;;;;;;8.23;3.65;;;6.50;77.70;;;;;;5030162;28;20025;-87
2021/04/05 00:45:45;;;;;;;11.48;3.28;;;6.50;77.90;;;;;;5033838;28;20474;-87
2021/04/05 00:48:12;;;;;;;6.85;2.88;;;6.50;77.80;;;;;;5033989;28;20030;-86
2021/04/05 00:50:52;;;;;;;10.25;3.33;;;6.60;77.60;;;;;;5030356;28;20084;-87
2021/04/05 00:53:22;;;;;;;8.43;3.30;;;6.50;78.20;;;;;;5036350;28;20092;-87
2021/04/05 00:55:48;;;;;;;6.75;2.88;;;6.60;78.20;;;;;;5025729;28;20025;-87
2021/04/05 00:58:15;;;;;;;6.03;2.45;;;6.50;77.80;;;;;;5029014;28;20223;-87
2021/04/05 01:00:45;;;;;;;7.35;3.17;;;6.50;77.90;;;;;;5033324;28;20047;-86
2021/04/05 01:03:17;;;;;;;7.72;3.40;;;6.50;78.50;;;;;;5034051;28;20025;-87
2021/04/05 01:05:43;;;;;;;9.35;3.00;;;6.40;78.40;;;;;;5036439;28;20056;-87
2021/04/05 01:08:10;;;;;;;10.20;3.70;;;6.50;78.90;;;;;;5032592;28;20426;-87
2021/04/05 01:10:37;;;;;;;11.68;3.83;;;6.50;78.90;;;;;;5033645;28;20477;-87
2021/04/05 01:13:04;;;;;;;8.52;3.65;;;6.40;79.10;;;;;;5033840;28;20095;-87
2021/04/05 01:15:29;;;;;;;9.77;3.25;;;6.50;79.10;;;;;;5033270;28;20028;-88
2021/04/05 01:17:55;;;;;;;8.10;2.95;;;6.50;79.50;;;;;;5032493;28;20483;-86
2021/04/05 01:20:21;;;;;;;7.68;3.53;;;6.40;79.40;;;;;;5033427;28;20025;-86
2021/04/05 01:22:50;;;;;;;8.80;3.30;;;6.40;79.20;;;;;;5026633;28;20025;-87
2021/04/05 01:25:17;;;;;;;8.88;3.50;;;6.40;79.30;;;;;;5034822;28;20014;-87
2021/04/05 01:27:44;;;;;;;9.52;3.40;;;6.40;80.00;;;;;;5033290;28;20080;-86
2021/04/05 01:30:32;;;;;;;10.48;3.15;;;6.40;80.00;;;;;;5030211;28;20416;-86
2021/04/05 01:33:04;;;;;;;8.10;3.13;;;6.40;79.90;;;;;;5034029;28;20021;-86
2021/04/05 01:35:32;;;;;;;11.27;3.30;;;6.30;80.20;;;;;;5032996;28;20053;-86
2021/04/05 01:37:58;;;;;;;6.57;2.72;;;6.30;80.10;;;;;;5034848;28;20057;-86
2021/04/05 01:40:23;;;;;;;9.20;3.15;;;6.30;80.00;;;;;;5033555;28;20057;-86
2021/04/05 01:42:49;;;;;;;8.55;3.10;;;6.30;80.10;;;;;;5027286;28;20052;-86
2021/04/05 01:45:18;;;;;;;10.18;2.67;;;6.20;80.60;;;;;;5033500;28;20025;-86
2021/04/05 01:47:44;;;;;;;8.97;3.40;;;6.10;81.50;;;;;;5048939;28;20025;-87
2021/04/05 01:50:11;;;;;;;8.80;2.90;;;6.10;81.80;;;;;;5034136;28;20026;-86
2021/04/05 01:52:41;;;;;;;8.07;3.53;;;6.10;81.70;;;;;;5032661;28;20087;-87
2021/04/05 01:55:08;;;;;;;9.20;3.03;;;6.10;81.80;;;;;;5033140;28;20036;-87
2021/04/05 01:57:34;;;;;;;9.27;3.03;;;6.10;81.90;;;;;;5033463;28;20030;-87
2021/04/05 02:00:00;;;;;;;8.40;3.20;;;6.10;82.10;;;;;;5032603;28;20026;-87
2021/04/05 02:02:27;;;;;;;8.90;3.43;;;6.00;82.40;;;;;;5033594;28;20040;-87
2021/04/05 02:04:55;;;;;;;9.38;3.00;;;6.00;82.80;;;;;;5031458;28;20064;-87
2021/04/05 02:07:21;;;;;;;9.02;2.40;;;6.10;82.60;;;;;;5032860;28;20113;-87
2021/04/05 02:09:47;;;;;;;12.63;2.90;;;6.00;82.90;;;;;;5032059;28;20053;-87
2021/04/05 02:12:13;;;;;;;11.02;3.05;;;5.90;82.60;;;;;;5032857;28;20030;-87
2021/04/05 02:14:40;;;;;;;8.32;3.30;;;5.80;83.10;;;;;;5034661;28;20038;-87
2021/04/05 02:17:05;;;;;;;12.18;3.20;;;5.70;84.60;;;;;;5034507;28;20079;-87
2021/04/05 02:19:31;;;;;;;9.37;3.07;;;5.50;85.40;;;;;;5033244;28;20490;-88
2021/04/05 02:21:57;;;;;;;6.17;2.80;;;5.60;86.20;;;;;;5032796;28;20133;-86
2021/04/05 02:24:23;;;;;;;7.73;3.37;;;5.30;86.70;;;;;;5033043;28;20026;-85
2021/04/05 02:26:49;;;;;;;10.20;3.10;;;5.30;87.60;;;;;;5032905;28;20100;-86
2021/04/05 02:29:19;;;;;;;10.50;3.33;;;5.40;88.10;;;;;;5037631;28;20052;-87
2021/04/05 02:31:44;;;;;;;6.90;2.93;;;5.30;88.00;;;;;;5038910;28;20402;-86
2021/04/05 02:34:12;;;;;;;10.18;3.22;;;5.30;88.50;;;;;;5040639;28;20029;-87
2021/04/05 02:36:39;;;;;;;7.37;2.60;;;5.20;89.10;;;;;;5040505;28;20048;-88
2021/04/05 02:39:11;;;;;;;8.67;3.07;;;5.30;89.70;;;;;;5039143;28;20474;-86
2021/04/05 02:41:42;;;;;;;7.65;2.53;;;5.30;89.90;;;;;;5038889;28;20021;-86
2021/04/05 02:44:09;;;;;;;9.53;3.20;;;5.40;89.50;;;;;;5039261;28;20025;-87
2021/04/05 02:46:37;;;;;;;6.30;2.60;;;5.40;89.20;;;;;;5035045;28;20438;-87
2021/04/05 02:49:06;;;;;;;7.07;2.67;;;5.50;89.10;;;;;;5040261;28;20017;-86
2021/04/05 02:51:33;;;;;;;8.37;3.20;;;5.50;89.00;;;;;;5038798;28;20022;-87
2021/04/05 02:54:00;;;;;;;7.38;2.80;;;5.50;89.40;;;;;;5045431;28;20018;-87
2021/04/05 02:56:27;;;;;;;6.87;2.87;;;5.50;89.30;;;;;;5039411;28;20017;-86
2021/04/05 02:58:54;;;;;;;8.63;2.93;;;5.60;90.00;;;;;;5040561;28;20021;-87
2021/04/05 03:01:22;;;;;;;7.93;3.63;;;5.50;89.70;;;;;;5038574;28;20051;-86
2021/04/05 03:03:48;;;;;;;7.17;2.90;;;5.50;89.70;;;;;;5029742;28;20470;-87
2021/04/05 03:06:16;;;;;;;11.70;3.20;;;5.50;89.70;;;;;;5040902;28;20495;-87
2021/04/05 03:08:42;;;;;;;8.47;3.23;;;5.50;90.00;;;;;;5040440;28;20013;-87
2021/04/05 03:11:09;;;;;;;9.20;3.10;;;5.50;90.10;;;;;;5039905;28;20403;-88
2021/04/05 03:13:37;;;;;;;9.38;2.75;;;5.50;90.30;;;;;;5038675;28;20116;-88
2021/04/05 03:16:16;;;;;;;9.97;3.10;;;5.40;90.40;;;;;;5039124;28;20100;-87
2021/04/05 03:18:45;;;;;;;7.10;2.58;;;5.40;90.30;;;;;;5029219;28;20032;-87
2021/04/05 03:21:14;;;;;;;7.57;2.97;;;5.40;90.40;;;;;;5038660;28;20021;-87
2021/04/05 03:23:42;;;;;;;12.40;3.30;;;5.40;90.40;;;;;;5039293;28;20021;-87
2021/04/05 03:26:07;;;;;;;7.22;3.30;;;5.40;90.60;;;;;;5038663;28;20493;-88
2021/04/05 03:28:33;;;;;;;7.68;3.78;;;5.40;90.60;;;;;;5038907;28;20029;-88
2021/04/05 03:31:11;;;;;;;9.37;3.67;;;5.40;90.60;;;;;;5038386;28;20030;-88
2021/04/05 03:33:43;;;;;;;8.10;3.60;;;5.30;90.90;;;;;;5038626;28;20045;-87
2021/04/05 03:36:32;;;;;;;11.53;3.27;;;5.30;90.80;;;;;;5038930;28;20093;-87
2021/04/05 03:38:59;;;;;;;9.77;3.57;;;5.30;91.00;;;;;;5032219;28;20026;-87
2021/04/05 03:41:33;;;;;;;8.87;3.20;;;5.10;91.30;;;;;;5035418;28;20537;-87
2021/04/05 03:44:25;;;;;;;11.10;3.10;;;4.90;92.10;;;;;;5044728;28;20022;-87
2021/04/05 03:46:56;;;;;;;10.13;3.47;;;4.80;92.50;;;;;;5034501;28;20044;-88
2021/04/05 03:49:53;;;;;;;10.90;3.07;;;4.80;92.60;;;;;;5035175;28;20030;-87
2021/04/05 03:52:34;;;;;;;8.67;3.80;;;4.70;93.00;;;;;;5026035;28;20052;-87
2021/04/05 03:55:09;;;;;;;8.47;3.50;;;4.70;93.30;;;;;;5036163;28;20032;-87
2021/04/05 03:57:45;;;;;;;9.17;3.27;;;4.60;93.50;;;;;;5035347;28;20029;-87
2021/04/05 04:00:13;;;;;;;11.40;3.40;;;4.50;94.10;;;;;;5033991;28;20553;-87
2021/04/05 04:02:42;;;;;;;11.13;3.40;;;4.50;94.00;;;;;;5035080;28;20034;-87
2021/04/05 04:05:24;;;;;;;9.33;3.77;;;4.50;94.50;;;;;;5035339;28;20017;-86
2021/04/05 04:10:19;;;;;;;10.20;3.30;;;4.60;94.40;;;;;;5035636;28;20018;-86
2021/04/05 04:12:48;;;;;;;11.40;3.43;;;4.60;94.50;;;;;;5026877;28;20388;-86
2021/04/05 04:15:15;;;;;;;9.10;3.90;;;4.50;94.60;;;;;;5035911;28;20124;-87
2021/04/05 04:17:43;;;;;;;10.37;3.30;;;4.50;95.10;;;;;;5033985;28;20036;-86
2021/04/05 04:20:14;;;;;;;10.47;3.17;;;4.50;94.90;;;;;;5030700;28;20120;-86
2021/04/05 04:22:44;;;;;;;11.37;3.40;;;4.30;95.40;;;;;;5037865;28;20171;-87
2021/04/05 04:25:10;;;;;;;10.23;3.13;;;4.10;95.80;;;;;;5034282;28;20021;-87
2021/04/05 04:27:42;;;;;;;9.10;3.20;;;4.10;96.30;;;;;;5031783;28;20022;-87
2021/04/05 04:30:08;;;;;;;7.53;3.33;;;4.00;96.80;;;;;;5029975;28;20022;-87
2021/04/05 04:32:34;;;;;;;13.20;3.10;;;4.00;97.00;;;;;;5033130;28;20112;-87
2021/04/05 04:35:00;;;;;;;9.83;3.40;;;4.00;97.20;;;;;;5033410;28;20684;-86
2021/04/05 04:37:26;;;;;;;8.47;3.20;;;3.90;97.50;;;;;;5022663;28;20033;-86
2021/04/05 04:39:52;;;;;;;9.07;3.80;;;3.90;97.70;;;;;;5017217;28;20046;-87
2021/04/05 04:42:17;;;;;;;8.27;3.20;;;4.00;97.90;;;;;;5019894;28;20018;-87
2021/04/05 04:44:43;;;;;;;9.60;3.50;;;3.90;98.10;;;;;;5032723;28;20104;-86
2021/04/05 04:47:11;;;;;;;11.07;3.23;;;3.90;98.30;;;;;;5032392;28;20091;-87
2021/04/05 04:49:36;;;;;;;13.13;3.47;;;4.00;98.60;;;;;;5032574;28;20347;-87
2021/04/05 04:52:02;;;;;;;10.10;3.30;;;4.10;98.50;;;;;;5029342;28;20025;-87
2021/04/05 04:54:30;;;;;;;10.07;3.33;;;4.10;98.20;;;;;;5031978;28;20140;-86
2021/04/05 04:56:56;;;;;;;8.43;3.13;;;4.20;98.10;;;;;;5032117;28;20108;-87
2021/04/05 04:59:24;;;;;;;11.03;3.80;;;4.30;98.00;;;;;;5032931;28;20105;-86
2021/04/05 05:01:50;;;;;;;8.67;3.37;;;4.30;97.50;;;;;;5031062;28;20478;-87
2021/04/05 05:04:20;;;;;;;10.70;3.27;;;4.40;97.40;;;;;;5031639;28;20014;-87
2021/04/05 05:06:47;;;;;;;7.90;3.07;;;4.40;96.90;;;;;;5029340;28;20026;-87
2021/04/05 05:09:14;;;;;;;8.33;2.90;;;4.50;97.10;;;;;;5028023;28;20060;-86
2021/04/05 05:11:40;;;;;;;8.93;3.07;;;4.40;97.10;;;;;;5031039;28;20036;-88
2021/04/05 05:14:06;;;;;;;8.33;3.23;;;4.40;97.10;;;;;;5031154;28;20040;-87
2021/04/05 05:16:33;;;;;;;9.83;3.37;;;4.50;97.30;;;;;;5029198;28;20029;-87
2021/04/05 05:18:59;;;;;;;6.40;3.27;;;4.50;96.80;;;;;;5030177;28;20022;-87
2021/04/05 05:21:26;;;;;;;8.20;3.30;;;4.50;96.50;;;;;;5031194;28;20018;-87
2021/04/05 05:23:56;;;;;;;5.30;2.57;;;4.50;96.70;;;;;;5031367;28;20363;-87
2021/04/05 05:26:23;;;;;;;7.73;3.33;;;4.40;96.80;;;;;;5031150;28;20029;-87
2021/04/05 05:28:54;;;;;;;8.73;3.20;;;4.40;96.80;;;;;;5023429;28;20036;-86
2021/04/05 05:31:20;;;;;;;9.07;3.30;;;4.40;97.00;;;;;;5030981;28;20060;-87
2021/04/05 05:33:46;;;;;;;8.57;3.17;;;4.30;97.00;;;;;;5024351;23;20065;-86
2021/04/05 05:36:14;;;;;;;8.27;3.27;;;4.30;97.30;;;;;;5009734;28;20108;-86
2021/04/05 05:38:40;;;;;;;6.83;3.00;;;4.30;97.30;;;;;;5007183;28;20100;-86
2021/04/05 05:41:15;;;;;;;7.77;3.10;;;4.40;97.60;;;;;;5025355;28;20108;-86
2021/04/05 05:44:04;;;;;;;8.73;3.30;;;4.40;97.50;;;;;;5004924;28;20034;-87
2021/04/05 05:46:42;;;;;;;9.53;2.90;;;4.40;97.50;;;;;;4986033;28;20037;-86
2021/04/05 05:49:48;;;;;;;7.83;3.20;;;4.40;97.60;;;;;;5001397;28;20019;-87
2021/04/05 05:52:16;;;;;;;6.87;2.63;;;4.50;97.60;;;;;;4984101;28;20027;-86
2021/04/05 05:55:12;;;;;;;10.73;3.57;;;4.50;97.30;;;;;;4983435;28;20022;-86
2021/04/05 05:58:16;;;;;;;12.40;3.20;;;4.60;97.20;;;;;;4977143;28;20070;-86
2021/04/05 06:00:50;;;;;;;7.30;2.73;;;4.70;97.10;;;;;;5007708;28;20034;-86
2021/04/05 06:03:41;;;;;;;10.23;3.37;;;4.70;97.00;;;;;;4992043;28;20102;-86
2021/04/05 06:06:13;;;;;;;6.07;3.20;;;4.80;96.90;;;;;;4986594;28;20109;-86
2021/04/05 06:09:00;;;;;;;9.13;2.90;;;4.90;96.60;;;;;;5007694;28;20027;-86
2021/04/05 06:11:35;;;;;;;9.50;3.10;;;5.00;96.30;;;;;;5008504;28;20109;-86
2021/04/05 06:14:08;;;;;;;7.70;2.67;;;5.10;95.80;;;;;;5006719;28;20027;-86
2021/04/05 06:17:01;;;;;;;9.40;3.23;;;5.20;95.00;;;;;;4999916;28;20027;-86
2021/04/05 06:20:02;;;;;;;10.05;3.25;;;5.30;94.70;;;;;;4996717;28;20027;-86
2021/04/05 06:22:40;;;;;;;11.43;3.13;;;5.40;94.50;;;;;;4992486;28;20030;-87
2021/04/05 06:25:24;;;;;;;8.70;2.63;;;5.50;94.50;;;;;;5005102;28;20034;-86
2021/04/05 06:28:04;;;;;;;7.00;3.27;;;5.60;93.70;;;;;;4990508;28;20133;-86
2021/04/05 06:30:48;;;;;;;7.20;2.70;;;5.70;93.50;;;;;;4998209;28;20434;-85
2021/04/05 06:33:27;;;;;;;6.43;2.90;;;5.80;93.30;;;;;;5000724;28;20395;-85
2021/04/05 06:36:11;;;;;;;11.53;3.10;;;5.80;93.20;;;;;;4982184;28;20399;-84
2021/04/05 06:39:11;;;;;;;9.63;2.90;;;5.90;93.00;;;;;;5008044;28;20026;-86
2021/04/05 06:41:56;;;;;;;8.13;2.77;;;5.90;93.00;;;;;;4990557;28;20023;-87
2021/04/05 06:44:46;;;;;;;7.07;2.90;;;6.00;93.10;;;;;;5009101;28;20022;-87
2021/04/05 06:47:37;;;;;;;7.17;2.63;;;6.10;92.50;;;;;;5006447;28;20022;-86
2021/04/05 06:50:26;;;;;;;7.40;2.47;;;6.20;92.00;;;;;;5008632;28;20487;-86
2021/04/05 06:53:07;;;;;;;7.20;2.40;;;6.40;91.50;;;;;;4981594;28;20034;-86
2021/04/05 06:55:45;;;;;;;7.47;2.90;;;6.40;90.90;;;;;;5006182;28;20033;-87
2021/04/05 06:58:42;;;;;;;9.10;2.90;;;6.50;90.80;;;;;;4999830;28;20105;-86
2021/04/05 07:01:41;;;;;;;8.40;2.67;;;6.60;90.60;;;;;;5005816;28;20026;-86
2021/04/05 07:04:32;;;;;;;8.73;2.53;;;6.70;90.60;;;;;;4987849;28;20026;-87
2021/04/05 07:07:20;;;;;;;10.23;2.80;;;6.80;90.10;;;;;;4999954;28;20512;-87
2021/04/05 07:09:51;;;;;;;11.80;3.75;;;6.80;89.80;;;;;;4999772;28;20023;-87
2021/04/05 07:12:52;;;;;;;8.50;2.63;;;6.90;90.00;;;;;;5005415;28;20499;-86
2021/04/05 07:15:46;;;;;;;8.33;2.83;;;7.00;89.80;;;;;;4990403;28;20026;-87
2021/04/05 07:18:49;;;;;;;7.97;2.20;;;7.20;89.40;;;;;;4992565;28;20337;-87
2021/04/05 07:21:37;;;;;;;10.93;3.50;;;7.20;88.90;;;;;;5010565;28;20018;-87
2021/04/05 07:24:39;;;;;;;9.52;2.90;;;7.20;88.80;;;;;;5002669;28;20431;-86
2021/04/05 07:27:19;;;;;;;9.83;2.80;;;7.30;88.70;;;;;;4966174;28;20117;-86
2021/04/05 07:29:56;;;;;;;6.35;2.72;;;7.40;88.40;;;;;;5014443;28;20034;-86
2021/04/05 07:32:40;;;;;;;6.03;2.53;;;7.50;88.20;;;;;;4997339;28;20039;-87
2021/04/05 07:35:18;;;;;;;6.18;2.70;;;7.50;86.70;;;;;;4988731;28;20113;-86
2021/04/05 07:38:06;;;;;;;9.30;2.83;;;7.60;86.40;;;;;;4988879;28;20069;-87
2021/04/05 07:41:05;;;;;;;8.95;2.63;;;7.70;86.20;;;;;;4984069;28;20534;-86
2021/04/05 07:43:40;;;;;;;9.52;2.50;;;7.80;86.20;;;;;;4998648;28;20106;-86
2021/04/05 07:46:17;;;;;;;8.38;2.78;;;7.90;85.80;;;;;;5008771;28;20444;-86
2021/04/05 07:49:08;;;;;;;9.60;2.75;;;8.00;85.10;;;;;;4990967;28;20475;-86
2021/04/05 07:51:54;;;;;;;8.93;2.42;;;8.10;84.30;;;;;;4996138;28;20108;-87
2021/04/05 07:54:23;;;;;;;6.30;2.50;;;8.30;84.20;;;;;;4997701;28;20032;-86
2021/04/05 07:57:16;;;;;;;5.53;2.42;;;8.50;83.60;;;;;;4992281;28;20037;-87
2021/04/05 08:00:12;;;;;;;6.95;2.38;;;8.60;82.60;;;;;;4994582;28;20039;-88
2021/04/05 08:03:10;;;;;;;5.75;2.45;;;8.70;82.50;;;;;;4990524;28;20109;-86
2021/04/05 08:05:52;;;;;;;11.05;2.83;;;8.80;82.10;;;;;;4991179;28;20057;-87
2021/04/05 08:08:26;;;;;;;7.82;2.85;;;8.90;82.40;;;;;;5008707;28;20018;-88
2021/04/05 08:11:17;;;;;;;7.80;2.92;;;9.00;81.90;;;;;;4993540;28;20037;-87
2021/04/05 08:14:02;;;;;;;8.40;2.80;;;9.30;81.60;;;;;;5012431;28;20080;-87
2021/04/05 08:16:43;;;;;;;7.72;2.72;;;9.60;81.00;;;;;;5007564;28;20372;-87
2021/04/05 08:19:19;;;;;;;10.73;3.20;;;9.80;81.00;;;;;;5001665;28;20038;-88
2021/04/05 08:22:00;;;;;;;11.93;3.10;;;10.10;79.80;;;;;;4986730;28;20475;-87
2021/04/05 08:25:11;;;;;;;7.93;2.65;;;10.40;78.60;;;;;;4993209;28;20076;-87
2021/04/05 08:27:45;;;;;;;9.38;3.05;;;10.60;77.10;;;;;;5013155;28;20113;-87
2021/04/05 08:30:28;;;;;;;12.10;3.33;;;10.90;76.50;;;;;;5009129;28;20569;-88
2021/04/05 08:33:17;;;;;;;8.10;2.70;;;11.10;75.40;;;;;;5009796;28;20026;-88
2021/04/05 08:35:45;;;;;;;9.80;2.60;;;11.20;74.60;;;;;;4993261;28;20023;-87
2021/04/05 08:38:13;;;;;;;8.95;2.97;;;11.40;75.00;;;;;;4991936;28;20022;-88
2021/04/05 08:40:54;;;;;;;8.63;2.22;;;11.50;74.20;;;;;;4992467;28;20753;-88
2021/04/05 08:43:23;;;;;;;8.48;2.00;;;11.70;72.50;;;;;;5009211;28;20053;-86
2021/04/05 08:45:57;;;;;;;7.80;2.42;;;11.70;70.10;;;;;;4989467;28;20053;-87
2021/04/05 08:48:27;;;;;;;6.60;1.92;;;11.60;69.60;;;;;;4991203;28;20029;-88
2021/04/05 08:50:59;;;;;;;8.48;2.00;;;11.40;69.00;;;;;;4990521;28;20118;-86
2021/04/05 08:53:27;;;;;;;9.77;3.15;;;11.60;69.60;;;;;;4992483;28;20476;-86
2021/04/05 08:55:57;;;;;;;7.47;2.40;;;11.70;68.70;;;;;;4991009;28;20558;-87
2021/04/05 08:58:38;;;;;;;9.48;2.10;;;11.80;67.60;;;;;;5007360;28;20027;-86
2021/04/05 09:01:11;;;;;;;13.02;2.20;;;11.70;66.30;;;;;;4991943;28;20034;-86
2021/04/05 09:03:40;;;;;;;10.73;2.00;;;11.70;64.60;;;;;;4990608;28;20153;-86
2021/04/05 09:06:18;;;;;;;6.53;2.25;;;11.70;65.20;;;;;;4996152;28;20022;-87
2021/04/05 09:08:46;;;;;;;7.97;2.00;;;11.70;63.80;;;;;;5005460;28;20037;-86
2021/04/05 09:11:14;;;;;;;10.48;1.85;;;11.60;63.60;;;;;;4991918;28;20117;-86
2021/04/05 09:13:45;;;;;;;7.85;1.70;;;11.50;62.60;;;;;;4987636;28;20042;-87
2021/04/05 09:16:36;;;;;;;12.27;1.90;;;11.50;63.20;;;;;;4995409;28;20478;-86
2021/04/05 09:19:27;;;;;;;7.50;2.00;;;11.30;63.50;;;;;;4989493;28;20076;-86
2021/04/05 09:22:22;;;;;;;6.18;2.08;;;11.20;63.50;;;;;;4993101;28;20030;-87
2021/04/05 09:25:17;;;;;;;8.98;2.05;;;11.20;63.70;;;;;;4994214;28;20046;-87
2021/04/05 09:27:54;;;;;;;9.52;1.85;;;11.10;62.30;;;;;;4994394;28;20034;-86
2021/04/05 09:30:29;;;;;;;4.55;1.77;;;11.10;63.60;;;;;;4992718;28;20034;-86
2021/04/05 09:33:17;;;;;;;7.82;2.28;;;11.10;64.10;;;;;;4994163;28;20406;-86
2021/04/05 09:36:04;;;;;;;8.05;1.65;;;11.00;63.50;;;;;;5009597;28;20026;-86
2021/04/05 09:38:32;;;;;;;8.63;1.70;;;11.00;64.10;;;;;;4997285;28;20063;-86
2021/04/05 09:41:24;;;;;;;7.88;1.92;;;11.20;63.10;;;;;;5013116;28;20026;-85
2021/04/05 09:44:26;;;;;;;8.23;1.90;;;11.10;62.60;;;;;;4992106;28;20026;-85
2021/04/05 09:47:32;;;;;;;9.15;1.83;;;11.20;62.10;;;;;;5015959;28;20098;-85
2021/04/05 09:50:11;;;;;;;8.90;1.98;;;11.20;62.80;;;;;;4995471;28;20027;-85
2021/04/05 09:53:01;;;;;;;5.90;1.55;;;11.20;64.10;;;;;;4993079;28;20447;-85
2021/04/05 09:55:31;;;;;;;7.70;1.75;;;11.10;63.60;;;;;;5006011;28;20030;-86
2021/04/05 09:58:24;;;;;;;9.30;1.80;;;11.10;62.90;;;;;;4994067;28;20030;-85
2021/04/05 10:01:14;;;;;;;7.18;2.08;;;11.20;63.50;;;;;;5006908;28;20105;-85
2021/04/05 10:03:45;;;;;;;7.60;1.70;;;11.30;63.30;;;;;;4988214;28;20360;-89
2021/04/05 10:06:17;;;;;;;5.90;1.60;;;11.40;62.80;;;;;;4994685;28;20022;-85
2021/04/05 10:08:44;;;;;;;5.30;1.33;;;11.20;63.60;;;;;;4995414;28;20057;-85
2021/04/05 10:11:11;;;;;;;5.32;1.60;;;11.10;64.20;;;;;;4993878;28;20038;-85
2021/04/05 10:13:44;;;;;;;7.50;1.63;;;11.10;65.00;;;;;;4987973;28;20034;-85
2021/04/05 10:16:10;;;;;;;8.23;2.10;;;11.10;63.90;;;;;;5018384;28;20026;-85
2021/04/05 10:18:36;;;;;;;5.28;1.63;;;10.90;63.10;;;;;;5016491;28;20040;-84
2021/04/05 10:21:05;;;;;;;6.82;1.70;;;10.90;64.60;;;;;;5031079;28;20118;-85
2021/04/05 10:23:33;;;;;;;10.43;2.17;;;10.90;63.40;;;;;;5007901;28;20049;-85
2021/04/05 10:26:02;;;;;;;7.32;2.15;;;11.00;63.90;;;;;;5002817;28;20057;-85
2021/04/05 10:28:34;;;;;;;7.40;2.08;;;11.20;63.30;;;;;;5016168;28;20021;-85
2021/04/05 10:31:04;;;;;;;5.80;1.80;;;11.10;61.70;;;;;;4996171;28;20041;-86
2021/04/05 10:33:32;;;;;;;7.00;1.90;;;11.10;61.30;;;;;;4995694;28;20049;-85
2021/04/05 10:36:03;;;;;;;9.57;1.60;;;11.10;61.10;;;;;;4995583;28;20117;-85
2021/04/05 10:38:29;;;;;;;9.00;2.05;;;11.20;60.70;;;;;;5004936;28;20046;-86
2021/04/05 10:40:56;;;;;;;5.88;1.63;;;11.20;60.90;;;;;;4996804;28;20069;-85
2021/04/05 10:43:35;;;;;;;7.70;1.85;;;11.20;59.30;;;;;;4991067;28;20501;-85
2021/04/05 10:46:31;;;;;;;7.57;1.80;;;11.50;59.50;;;;;;4998143;28;20499;-85
2021/04/05 10:49:10;;;;;;;9.82;1.70;;;11.30;58.50;;;;;;5003034;28;20038;-86
2021/04/05 10:51:53;;;;;;;7.25;2.33;;;11.30;57.60;;;;;;4997713;28;20030;-86
2021/04/05 10:54:25;;;;;;;7.28;1.63;;;11.40;56.30;;;;;;5010245;28;20029;-86
2021/04/05 10:57:01;;;;;;;7.38;1.80;;;11.50;55.50;;;;;;4996094;28;20037;-86
2021/04/05 10:59:51;;;;;;;6.82;2.08;;;11.60;55.70;;;;;;5009685;28;20070;-86
2021/04/05 11:02:27;;;;;;;6.40;1.60;;;11.80;55.40;;;;;;4999245;28;20080;-87
2021/04/05 11:04:55;;;;;;;4.90;1.73;;;11.80;54.70;;;;;;4997315;28;20029;-86
2021/04/05 11:07:23;;;;;;;6.65;1.90;;;11.80;54.70;;;;;;4995673;28;20346;-85
2021/04/05 11:09:51;;;;;;;6.78;1.70;;;11.90;53.90;;;;;;5005692;28;20022;-86
2021/04/05 11:12:19;;;;;;;11.30;2.78;;;11.80;53.50;;;;;;4997305;28;20019;-86
2021/04/05 11:14:48;;;;;;;10.48;1.85;;;11.80;52.70;;;;;;4994796;28;20026;-85
2021/04/05 11:17:16;;;;;;;6.13;1.73;;;11.60;53.20;;;;;;4994327;28;20030;-86
2021/04/05 11:19:49;;;;;;;6.50;1.90;;;11.70;53.80;;;;;;4998901;28;20030;-86
2021/04/05 11:22:21;;;;;;;9.32;2.05;;;11.70;52.50;;;;;;4995203;28;20010;-86
2021/04/05 11:25:06;;;;;;;10.20;1.98;;;11.90;53.90;;;;;;4994075;28;20480;-86
2021/04/05 11:27:37;;;;;;;5.18;1.92;;;11.80;53.20;;;;;;4995159;28;20065;-87
2021/04/05 11:30:05;;;;;;;5.68;1.73;;;11.90;53.70;;;;;;5015417;28;20030;-86
2021/04/05 11:32:33;;;;;;;5.90;2.00;;;11.90;53.70;;;;;;5011412;23;20390;-87
2021/04/05 11:35:03;;;;;;;7.47;1.80;;;12.10;54.90;;;;;;5014411;28;20034;-88
2021/04/05 11:37:34;;;;;;;8.88;1.75;;;12.10;53.60;;;;;;5021004;28;20030;-88
2021/04/05 11:40:05;;;;;;;7.32;1.73;;;12.20;54.30;;;;;;5017640;28;20091;-86
2021/04/05 11:42:38;;;;;;;4.68;1.85;;;12.10;55.20;;;;;;5020418;28;20056;-86
2021/04/05 11:45:08;;;;;;;11.43;2.20;;;12.30;56.10;;;;;;5030057;28;20558;-86
2021/04/05 11:47:37;;;;;;;10.95;2.72;;;12.40;55.90;;;;;;5029380;28;20030;-87
2021/04/05 11:50:17;;;;;;;7.18;3.00;;;12.60;55.80;;;;;;5014681;28;20022;-87
2021/04/05 11:53:05;;;;;;;10.80;3.47;;;12.70;56.30;;;;;;5021122;28;20030;-86
2021/04/05 11:55:33;;;;;;;8.73;2.60;;;12.50;56.30;;;;;;5014675;28;20037;-86
2021/04/05 11:58:05;;;;;;;10.23;3.33;;;12.50;57.30;;;;;;5013148;28;20038;-88
2021/04/05 12:00:40;;;;;;;10.45;2.83;;;12.50;57.20;;;;;;5012059;28;20085;-87
2021/04/05 12:03:34;;;;;;;9.85;2.72;;;12.50;57.60;;;;;;5010040;28;20029;-87
2021/04/05 12:06:08;;;;;;;13.95;3.75;;;12.40;57.70;;;;;;5012826;28;20076;-86
2021/04/05 12:08:40;;;;;;;7.80;3.22;;;12.30;58.40;;;;;;5018371;28;20034;-86
2021/04/05 12:11:07;;;;;;;11.60;3.13;;;12.30;58.80;;;;;;5020964;28;20026;-87
2021/04/05 12:13:39;;;;;;;11.65;3.47;;;12.40;58.50;;;;;;5008407;28;20038;-88
2021/04/05 12:16:07;;;;;;;9.25;3.13;;;12.30;59.10;;;;;;5026225;28;20035;-86
2021/04/05 12:18:35;;;;;;;11.32;3.47;;;12.20;58.50;;;;;;5016627;28;20035;-86
2021/04/05 12:21:12;;;;;;;11.73;3.92;;;12.30;59.00;;;;;;5026424;28;20149;-86
2021/04/05 12:23:41;;;;;;;12.60;4.03;;;12.10;58.70;;;;;;5018921;28;20673;-86
2021/04/05 12:26:08;;;;;;;10.93;3.83;;;12.00;59.20;;;;;;5035320;28;20068;-86
2021/04/05 12:28:38;;;;;;;8.75;3.70;;;11.80;59.70;;;;;;5014703;28;20084;-85
2021/04/05 12:31:05;;;;;;;11.40;4.43;;;11.80;60.40;;;;;;5028160;28;20037;-87
2021/04/05 12:33:38;;;;;;;11.98;4.47;;;11.60;60.50;;;;;;5018508;28;20418;-85
2021/04/05 12:36:05;;;;;;;9.95;4.07;;;11.50;61.50;;;;;;5018638;28;20041;-85
2021/04/05 12:38:37;;;;;;;13.00;4.60;;;11.40;61.80;;;;;;5015384;28;20451;-87
2021/04/05 12:41:08;;;;;;;15.20;5.22;;;11.20;62.30;;;;;;5016622;28;20052;-86
2021/04/05 12:43:38;;;;;;;12.65;4.47;;;11.20;62.70;;;;;;5016314;28;20034;-87
2021/04/05 12:46:11;;;;;;;14.30;5.20;;;11.30;63.30;;;;;;5016892;28;20026;-86
2021/04/05 12:48:38;;;;;;;12.88;4.97;;;11.10;63.80;;;;;;5007308;28;20030;-86
2021/04/05 12:51:08;;;;;;;12.10;4.68;;;11.10;63.90;;;;;;5022521;28;20029;-87
2021/04/05 12:53:36;;;;;;;14.60;4.82;;;10.90;64.60;;;;;;5021987;28;20101;-87
2021/04/05 12:56:04;;;;;;;13.57;5.50;;;10.90;65.60;;;;;;5018336;28;20112;-87
2021/04/05 12:58:34;;;;;;;16.38;5.68;;;10.80;66.30;;;;;;5009115;28;20022;-87
2021/04/05 13:01:02;;;;;;;14.07;5.28;;;10.70;67.10;;;;;;5012807;28;20052;-86
2021/04/05 13:03:34;;;;;;;14.68;5.95;;;10.60;67.80;;;;;;5011522;28;20017;-86
2021/04/05 13:06:13;;;;;;;12.05;5.22;;;10.70;68.40;;;;;;5013220;28;20081;-87
2021/04/05 13:09:03;;;;;;;13.48;6.15;;;10.60;69.00;;;;;;5012374;28;20018;-86
2021/04/05 13:11:35;;;;;;;17.30;6.13;;;10.60;69.30;;;;;;5011894;28;20685;-85
2021/04/05 13:14:04;;;;;;;17.50;6.25;;;10.70;69.50;;;;;;5009036;28;20030;-87
2021/04/05 13:16:40;;;;;;;16.00;6.43;;;10.80;69.70;;;;;;5012723;28;20406;-87
2021/04/05 13:19:14;;;;;;;18.50;6.63;;;10.80;69.40;;;;;;5020683;28;20041;-86
2021/04/05 13:21:41;;;;;;;19.67;7.68;;;10.90;69.90;;;;;;5008476;28;20475;-86
2021/04/05 13:24:32;;;;;;;15.40;6.55;;;10.80;70.30;;;;;;5005694;28;20113;-87
2021/04/05 13:27:00;;;;;;;15.45;6.38;;;10.70;70.60;;;;;;5004178;28;20053;-87
2021/04/05 13:29:32;;;;;;;16.13;6.68;;;10.70;70.90;;;;;;5012428;28;20022;-87